LFRV/VNE METAR and TAF weather

Enter ICAO airport designator
Station Type Date Time Source
LFRV METAR 2021/03/01 04:00 UTC NOAA

LFRV 010400Z AUTO 05008KT 9000 NSC 03/01 Q1025


Station Type Date Time Source
LFRV Decoded METAR 2021/03/01 04:00 UTC NOAA

Station name not available
Feb 28, 2021 - 11:00 PM EST / 2021.03.01 0400 UTC
Wind: from the NE (050 degrees) at 9 MPH (8 KT):0
Visibility: 5 mile(s):0
Temperature: 37 F (3 C)
Dew Point: 33 F (1 C)
Relative Humidity: 86%
Pressure (altimeter): 30.27 in. Hg (1025 hPa)
ob: LFRV 010400Z AUTO 05008KT 9000 NSC 03/01 Q1025
cycle: 4

Station Type Date Time Source
LFRV TAF UTC NOAA

Error!

Example: see airport list